Login to view products. 
Wednesday, August 23, 2017 (17:38 UTC)
Sharjah International Airport
ICAO Code: OMSJ
IATA Code: SHJ
  • METAR OMSJ 231730Z 08005KT CAVOK 34/20 Q1002=
  • TAF OMSJ 231654Z 2318/2500 09007KT CAVOK BECMG 2402/2404 15010KT BECMG 2409/2411 35013KT BECMG 2415/2417 07005KT=